createdAt,value
2019-04-14T00:02:05.432Z,30.60
2019-04-14T00:04:40.034Z,29.15
2019-04-14T00:07:12.955Z,30.65
2019-04-14T00:09:47.399Z,30.48
2019-04-14T00:12:20.748Z,33.28
2019-04-14T00:14:53.789Z,28.25
2019-04-14T00:17:26.262Z,33.38
2019-04-14T00:20:00.906Z,29.25
2019-04-14T00:22:33.902Z,29.95
2019-04-14T00:25:08.660Z,29.52
2019-04-14T00:27:43.205Z,30.27
2019-04-14T00:30:18.672Z,35.55
2019-04-14T00:32:53.076Z,31.17
2019-04-14T00:35:27.700Z,31.82
2019-04-14T00:38:02.357Z,30.90
2019-04-14T00:40:36.801Z,33.67
2019-04-14T00:43:11.358Z,30.37
2019-04-14T00:45:50.748Z,31.87
2019-04-14T00:48:21.468Z,32.35
2019-04-14T00:50:54.044Z,29.25
2019-04-14T00:53:27.471Z,31.40
2019-04-14T00:56:00.115Z,32.88
2019-04-14T00:58:32.767Z,35.03
2019-04-14T01:01:06.835Z,31.90
2019-04-14T01:03:39.568Z,30.35
2019-04-14T01:06:12.231Z,27.73
2019-04-14T01:08:44.749Z,30.50
2019-04-14T01:11:18.164Z,33.83
2019-04-14T01:13:50.848Z,32.42
2019-04-14T01:16:24.980Z,31.80
2019-04-14T01:18:58.016Z,29.18
2019-04-14T01:21:30.858Z,30.35
2019-04-14T01:24:03.271Z,28.40
2019-04-14T01:26:36.235Z,29.42
2019-04-14T01:29:10.036Z,31.85
2019-04-14T01:31:42.581Z,29.23
2019-04-14T01:34:15.202Z,28.77
2019-04-14T01:36:47.797Z,28.12
2019-04-14T01:39:20.285Z,28.77
2019-04-14T01:41:54.211Z,30.77
2019-04-14T01:44:26.855Z,27.60
2019-04-14T01:46:59.354Z,35.90
2019-04-14T01:49:32.191Z,31.48
2019-04-14T01:52:08.074Z,31.52
2019-04-14T01:54:42.994Z,28.55
2019-04-14T01:57:17.558Z,27.40
2019-04-14T01:59:50.403Z,34.88
2019-04-14T02:02:24.807Z,26.23
2019-04-14T02:04:57.618Z,29.15
2019-04-14T02:07:29.924Z,28.83
2019-04-14T02:10:02.439Z,28.87
2019-04-14T02:12:36.403Z,26.33
2019-04-14T02:15:11.199Z,27.17
2019-04-14T02:17:45.910Z,26.60
2019-04-14T02:20:18.932Z,27.05
2019-04-14T02:22:51.227Z,28.42
2019-04-14T02:25:23.670Z,29.67
2019-04-14T02:27:56.222Z,26.05
2019-04-14T02:30:37.970Z,23.75
2019-04-14T02:33:31.902Z,31.90
2019-04-14T02:36:06.301Z,25.35
2019-04-14T02:38:45.258Z,23.07
2019-04-14T02:41:18.370Z,23.90
2019-04-14T02:51:29.266Z,21.05
2019-04-14T02:59:03.702Z,21.87
2019-04-14T03:04:12.740Z,21.07
2019-04-14T03:06:50.394Z,21.93
2019-04-14T03:09:30.589Z,21.42
2019-04-14T03:11:51.922Z,19.73
2019-04-14T03:14:32.372Z,19.17
2019-04-14T03:19:46.133Z,19.12
2019-04-14T03:24:39.354Z,18.00
2019-04-14T03:27:32.262Z,18.05
2019-04-14T03:30:26.216Z,18.82
2019-04-14T03:35:35.956Z,17.60
2019-04-14T03:37:59.194Z,18.52
2019-04-14T03:40:21.710Z,23.22
2019-04-14T03:42:55.444Z,17.60
2019-04-14T03:45:39.443Z,18.20
2019-04-14T03:55:28.339Z,20.43
2019-04-14T03:57:52.413Z,17.25
2019-04-14T04:00:25.027Z,15.68
2019-04-14T04:02:57.653Z,16.75
2019-04-14T04:05:30.322Z,18.95
2019-04-14T04:08:02.831Z,16.37
2019-04-14T04:10:37.835Z,15.58
2019-04-14T04:13:10.542Z,15.10
2019-04-14T04:15:43.771Z,15.08
2019-04-14T04:18:17.745Z,15.48
2019-04-14T04:20:52.447Z,14.07
2019-04-14T04:23:27.074Z,14.40
2019-04-14T04:26:01.837Z,15.83
2019-04-14T04:28:36.387Z,15.08
2019-04-14T04:31:11.003Z,20.77
2019-04-14T04:33:45.745Z,16.75
2019-04-14T04:36:20.327Z,13.40
2019-04-14T04:38:55.290Z,13.75
2019-04-14T04:41:28.307Z,14.25
2019-04-14T04:44:00.895Z,14.53
2019-04-14T04:46:33.435Z,16.00
2019-04-14T04:49:11.676Z,13.88
2019-04-14T04:51:42.065Z,14.38
2019-04-14T04:54:14.704Z,15.83
2019-04-14T04:56:47.519Z,12.98
2019-04-14T04:59:21.234Z,13.75
2019-04-14T05:01:53.935Z,13.93
2019-04-14T05:04:26.837Z,14.75
2019-04-14T05:07:03.368Z,13.88
2019-04-14T05:09:36.957Z,13.32
2019-04-14T05:12:11.019Z,14.90
2019-04-14T05:14:45.610Z,13.90
2019-04-14T05:17:19.403Z,15.25
2019-04-14T05:19:52.029Z,16.45
2019-04-14T05:22:24.734Z,14.05
2019-04-14T05:24:57.505Z,15.63
2019-04-14T05:27:31.877Z,15.23
2019-04-14T05:30:04.747Z,13.55
2019-04-14T05:32:36.922Z,14.03
2019-04-14T05:35:09.737Z,16.50
2019-04-14T05:37:42.353Z,13.90
2019-04-14T05:40:14.747Z,15.60
2019-04-14T05:42:47.473Z,14.90
2019-04-14T05:45:21.918Z,13.83
2019-04-14T05:47:54.630Z,14.07
2019-04-14T05:50:27.348Z,14.00
2019-04-14T05:53:00.066Z,15.45
2019-04-14T05:55:32.858Z,13.90
2019-04-14T05:58:05.729Z,16.57
2019-04-14T06:00:39.029Z,14.45
2019-04-14T06:03:12.433Z,15.45
2019-04-14T06:05:45.037Z,13.50
2019-04-14T06:08:17.844Z,12.65
2019-04-14T06:10:50.347Z,13.65
2019-04-14T06:13:22.952Z,14.38
2019-04-14T06:15:56.382Z,14.28
2019-04-14T06:18:29.453Z,12.60
2019-04-14T06:21:02.078Z,13.75
2019-04-14T06:23:34.681Z,14.18
2019-04-14T06:26:06.955Z,13.10
2019-04-14T06:28:39.718Z,13.48
2019-04-14T06:31:13.404Z,13.22
2019-04-14T06:33:47.137Z,16.15
2019-04-14T06:36:20.937Z,15.05
2019-04-14T06:38:54.784Z,14.58
2019-04-14T06:41:27.457Z,13.62
2019-04-14T06:43:59.988Z,15.93
2019-04-14T06:46:33.963Z,11.97
2019-04-14T06:49:06.499Z,16.93
2019-04-14T06:51:38.854Z,13.83
2019-04-14T06:54:11.379Z,12.88
2019-04-14T06:56:44.278Z,14.25
2019-04-14T06:59:17.094Z,14.70
2019-04-14T07:01:50.133Z,16.15
2019-04-14T07:04:22.778Z,14.00
2019-04-14T07:06:55.603Z,13.68
2019-04-14T07:09:28.119Z,14.93
2019-04-14T07:12:01.098Z,14.00
2019-04-14T07:14:34.949Z,13.62
2019-04-14T07:17:07.799Z,14.20
2019-04-14T07:19:40.084Z,14.30
2019-04-14T07:22:12.931Z,14.10
2019-04-14T07:24:46.358Z,16.85
2019-04-14T07:27:19.183Z,14.10
2019-04-14T07:29:52.845Z,16.90
2019-04-14T07:32:26.840Z,14.75
2019-04-14T07:35:00.397Z,15.48
2019-04-14T07:37:34.201Z,15.43
2019-04-14T07:40:09.749Z,15.08
2019-04-14T07:42:44.269Z,15.03
2019-04-14T07:45:18.079Z,13.90
2019-04-14T07:47:52.114Z,14.33
2019-04-14T07:50:28.771Z,13.75
2019-04-14T07:53:02.541Z,13.83
2019-04-14T07:55:36.582Z,14.63
2019-04-14T07:58:10.625Z,13.83
2019-04-14T08:00:44.564Z,15.30
2019-04-14T08:03:18.123Z,14.50
2019-04-14T08:05:50.820Z,14.13
2019-04-14T08:08:23.317Z,14.68
2019-04-14T08:10:56.405Z,14.90
2019-04-14T08:13:29.788Z,16.20
2019-04-14T08:16:05.311Z,15.98
2019-04-14T08:18:37.616Z,17.75
2019-04-14T08:21:10.307Z,16.00
2019-04-14T08:23:42.813Z,16.07
2019-04-14T08:26:15.165Z,15.23
2019-04-14T08:28:47.810Z,14.50
2019-04-14T08:31:20.625Z,15.25
2019-04-14T08:33:54.509Z,17.37
2019-04-14T08:36:27.307Z,14.93
2019-04-14T08:39:01.825Z,15.08
2019-04-14T08:41:37.207Z,14.83
2019-04-14T08:44:10.933Z,15.08
2019-04-14T08:46:44.533Z,14.80
2019-04-14T08:49:18.143Z,15.88
2019-04-14T08:51:51.734Z,14.87
2019-04-14T08:54:25.940Z,14.15
2019-04-14T08:56:59.706Z,15.70
2019-04-14T08:59:33.497Z,15.48
2019-04-14T09:02:07.576Z,15.93
2019-04-14T09:04:41.462Z,16.12
2019-04-14T09:07:15.575Z,15.72
2019-04-14T09:09:50.422Z,15.00
2019-04-14T09:12:24.212Z,15.28
2019-04-14T09:14:57.583Z,17.55
2019-04-14T09:17:31.536Z,14.80
2019-04-14T09:20:04.011Z,16.50
2019-04-14T09:22:36.438Z,14.68
2019-04-14T09:25:09.478Z,14.30
2019-04-14T09:27:41.885Z,14.75
2019-04-14T09:30:15.189Z,14.93
2019-04-14T09:32:47.813Z,17.60
2019-04-14T09:35:20.328Z,14.43
2019-04-14T09:37:54.409Z,15.05
2019-04-14T09:40:26.822Z,16.32
2019-04-14T09:42:59.511Z,15.95
2019-04-14T09:45:31.932Z,14.75
2019-04-14T09:48:04.867Z,17.67
2019-04-14T09:50:37.266Z,16.40
2019-04-14T09:53:10.016Z,15.28
2019-04-14T09:55:43.227Z,15.95
2019-04-14T09:58:15.699Z,15.98
2019-04-14T10:00:48.117Z,19.32
2019-04-14T10:03:21.037Z,15.78
2019-04-14T10:05:53.404Z,20.30
2019-04-14T10:08:26.023Z,16.05
2019-04-14T10:10:58.645Z,15.23
2019-04-14T10:13:32.054Z,20.85
2019-04-14T10:16:04.811Z,21.82
2019-04-14T10:18:37.322Z,27.22
2019-04-14T10:21:17.337Z,25.02
2019-04-14T10:23:44.826Z,19.45
2019-04-14T10:26:18.024Z,20.05
2019-04-14T10:28:50.956Z,34.48
2019-04-14T10:31:23.837Z,32.03
2019-04-14T10:33:56.405Z,29.00
2019-04-14T10:36:29.086Z,31.27
2019-04-14T10:39:01.571Z,25.85
2019-04-14T10:41:35.216Z,70.15
2019-04-14T10:44:07.688Z,53.70
2019-04-14T10:46:40.330Z,33.55
2019-04-14T10:49:13.244Z,26.60
2019-04-14T10:51:45.747Z,26.93
2019-04-14T10:54:18.153Z,29.98
2019-04-14T10:56:50.665Z,21.25
2019-04-14T10:59:23.303Z,23.42
2019-04-14T11:01:55.926Z,22.40
2019-04-14T11:04:28.298Z,35.25
2019-04-14T11:07:02.025Z,25.15
2019-04-14T11:09:34.506Z,35.43
2019-04-14T11:12:07.368Z,52.23
2019-04-14T11:14:40.230Z,58.28
2019-04-14T11:17:12.634Z,66.80
2019-04-14T11:19:44.962Z,22.52
2019-04-14T11:22:17.395Z,33.95
2019-04-14T11:24:49.849Z,31.27
2019-04-14T11:27:22.460Z,28.75
2019-04-14T11:29:54.871Z,35.73
2019-04-14T11:32:28.755Z,44.60
2019-04-14T11:35:04.522Z,42.25
2019-04-14T11:37:38.580Z,36.50
2019-04-14T11:40:12.481Z,29.57
2019-04-14T11:42:52.335Z,27.75
2019-04-14T11:45:19.459Z,25.60
2019-04-14T11:47:53.390Z,29.77
2019-04-14T11:50:26.813Z,31.27
2019-04-14T11:52:59.630Z,53.42
2019-04-14T11:55:32.198Z,19.00
2019-04-14T11:58:04.744Z,17.95
2019-04-14T12:00:38.281Z,18.90
2019-04-14T12:03:12.517Z,21.23
2019-04-14T12:05:46.413Z,22.60
2019-04-14T12:08:20.430Z,19.55
2019-04-14T12:10:52.709Z,22.00
2019-04-14T12:13:25.234Z,37.65
2019-04-14T12:15:57.595Z,36.33
2019-04-14T12:18:30.477Z,39.38
2019-04-14T12:21:02.831Z,38.45
2019-04-14T12:23:35.661Z,31.70
2019-04-14T12:26:08.269Z,22.25
2019-04-14T12:28:41.189Z,17.17
2019-04-14T12:31:13.501Z,15.75
2019-04-14T12:33:45.948Z,16.55
2019-04-14T12:36:18.348Z,22.27
2019-04-14T12:38:51.162Z,19.82
2019-04-14T12:41:26.567Z,18.55
2019-04-14T12:44:00.673Z,19.57
2019-04-14T12:46:34.569Z,20.50
2019-04-14T12:49:08.942Z,19.05
2019-04-14T12:51:43.013Z,18.77
2019-04-14T12:54:15.311Z,25.10
2019-04-14T12:56:48.859Z,22.73
2019-04-14T12:59:23.446Z,19.35
2019-04-14T13:01:57.894Z,16.67
2019-04-14T13:04:31.111Z,15.40
2019-04-14T13:07:03.520Z,14.38
2019-04-14T13:09:36.122Z,19.32
2019-04-14T13:12:10.301Z,16.97
2019-04-14T13:14:42.689Z,21.27
2019-04-14T13:17:15.759Z,22.77
2019-04-14T13:19:48.726Z,17.92
2019-04-14T13:22:32.956Z,23.65
2019-04-14T13:24:54.915Z,19.82
2019-04-14T13:27:27.337Z,19.12
2019-04-14T13:29:59.912Z,18.50
2019-04-14T13:32:36.222Z,17.55
2019-04-14T13:35:09.176Z,22.27
2019-04-14T13:37:41.645Z,16.45
2019-04-14T13:40:15.952Z,14.85
2019-04-14T13:42:48.485Z,14.93
2019-04-14T13:45:21.100Z,15.15
2019-04-14T13:47:53.524Z,16.27
2019-04-14T13:50:26.215Z,17.48
2019-04-14T13:52:58.509Z,17.10
2019-04-14T13:55:30.941Z,16.77
2019-04-14T13:58:04.495Z,16.37
2019-04-14T14:00:37.595Z,17.50
2019-04-14T14:03:10.115Z,19.00
2019-04-14T14:05:43.779Z,21.07
2019-04-14T14:08:16.292Z,37.45
2019-04-14T14:10:50.100Z,39.40
2019-04-14T14:13:23.647Z,37.15
2019-04-14T14:15:58.385Z,31.87
2019-04-14T14:18:32.092Z,30.55
2019-04-14T14:21:06.089Z,30.32
2019-04-14T14:23:39.907Z,34.10
2019-04-14T14:26:13.817Z,25.20
2019-04-14T14:28:46.030Z,37.17
2019-04-14T14:31:20.271Z,31.65
2019-04-14T14:33:52.362Z,30.30
2019-04-14T14:36:25.106Z,28.40
2019-04-14T14:38:57.309Z,25.00
2019-04-14T14:41:30.170Z,31.75
2019-04-14T14:44:02.796Z,31.30
2019-04-14T14:46:37.127Z,22.55
2019-04-14T14:49:11.092Z,24.37
2019-04-14T14:51:44.710Z,25.52
2019-04-14T14:54:17.528Z,26.95
2019-04-14T14:56:50.383Z,27.80
2019-04-14T14:59:22.959Z,26.87
2019-04-14T15:01:55.483Z,28.60
2019-04-14T15:04:28.296Z,25.70
2019-04-14T15:07:00.794Z,26.02
2019-04-14T15:09:34.225Z,25.10
2019-04-14T15:12:06.979Z,25.20
2019-04-14T15:14:39.585Z,34.35
2019-04-14T15:17:12.653Z,38.20
2019-04-14T15:19:45.063Z,27.85
2019-04-14T15:22:17.664Z,33.18
2019-04-14T15:24:49.975Z,33.38
2019-04-14T15:27:22.793Z,30.00
2019-04-14T15:29:55.393Z,30.55
2019-04-14T15:32:28.438Z,29.60
2019-04-14T15:35:00.922Z,34.03
2019-04-14T15:37:34.417Z,34.23
2019-04-14T15:40:08.189Z,31.23
2019-04-14T15:42:40.414Z,31.93
2019-04-14T15:45:14.088Z,36.35
2019-04-14T15:47:47.393Z,29.75
2019-04-14T15:50:19.795Z,31.20
2019-04-14T15:52:52.321Z,27.70
2019-04-14T15:55:24.940Z,25.82
2019-04-14T15:57:58.830Z,27.73
2019-04-14T16:00:33.530Z,25.57
2019-04-14T16:03:07.427Z,24.15
2019-04-14T16:05:41.204Z,23.07
2019-04-14T16:08:14.908Z,26.68
2019-04-14T16:10:48.950Z,26.05
2019-04-14T16:13:22.510Z,28.57
2019-04-14T16:15:56.183Z,25.62
2019-04-14T16:18:29.649Z,25.05
2019-04-14T16:21:02.078Z,24.87
2019-04-14T16:23:34.760Z,22.30
2019-04-14T16:26:08.390Z,24.82
2019-04-14T16:28:43.220Z,25.48
2019-04-14T16:31:17.741Z,24.35
2019-04-14T16:33:51.696Z,26.17
2019-04-14T16:36:24.133Z,25.02
2019-04-14T16:38:56.757Z,23.42
2019-04-14T16:41:29.189Z,24.40
2019-04-14T16:44:02.117Z,22.30
2019-04-14T16:46:35.689Z,24.72
2019-04-14T16:49:09.619Z,27.45
2019-04-14T16:51:43.409Z,23.40
2019-04-14T16:54:17.265Z,26.57
2019-04-14T16:56:50.959Z,27.90
2019-04-14T16:59:23.669Z,25.48
2019-04-14T17:01:55.967Z,26.40
2019-04-14T17:04:28.654Z,30.90
2019-04-14T17:07:01.256Z,25.95
2019-04-14T17:09:34.017Z,23.47
2019-04-14T17:12:06.680Z,24.05
2019-04-14T17:14:40.258Z,23.12
2019-04-14T17:17:14.086Z,24.18
2019-04-14T17:19:47.775Z,25.68
2019-04-14T17:22:21.684Z,26.48
2019-04-14T17:24:55.264Z,21.93
2019-04-14T17:27:29.081Z,25.05
2019-04-14T17:30:03.080Z,26.93
2019-04-14T17:32:37.624Z,27.07
2019-04-14T17:35:12.059Z,27.00
2019-04-14T17:37:46.786Z,25.27
2019-04-14T17:40:20.887Z,23.45
2019-04-14T17:42:54.680Z,29.12
2019-04-14T17:45:29.212Z,22.45
2019-04-14T17:48:03.248Z,27.50
2019-04-14T17:50:40.885Z,22.95
2019-04-14T17:53:13.932Z,26.62
2019-04-14T17:55:49.882Z,23.75
2019-04-14T17:58:23.297Z,23.12
2019-04-14T18:00:57.229Z,30.95
2019-04-14T18:03:31.654Z,23.55
2019-04-14T18:06:05.809Z,24.35
2019-04-14T18:08:40.125Z,21.33
2019-04-14T18:11:14.058Z,23.87
2019-04-14T18:13:48.065Z,26.48
2019-04-14T18:16:22.015Z,24.05
2019-04-14T18:18:55.657Z,25.48
2019-04-14T18:21:28.508Z,24.15
2019-04-14T18:24:01.283Z,24.57
2019-04-14T18:26:33.807Z,26.20
2019-04-14T18:29:07.749Z,22.20
2019-04-14T18:31:41.262Z,23.30
2019-04-14T18:34:14.946Z,27.95
2019-04-14T18:36:49.435Z,24.10
2019-04-14T18:39:23.836Z,27.50
2019-04-14T18:41:57.412Z,21.55
2019-04-14T18:44:31.243Z,26.35
2019-04-14T18:47:04.876Z,24.43
2019-04-14T18:49:38.483Z,24.63
2019-04-14T18:52:12.164Z,22.17
2019-04-14T18:54:54.360Z,25.72
2019-04-14T18:57:21.138Z,29.45
2019-04-14T18:59:54.900Z,26.87
2019-04-14T19:02:27.394Z,26.95
2019-04-14T19:04:59.984Z,25.25
2019-04-14T19:07:32.296Z,24.15
2019-04-14T19:10:05.019Z,24.43
2019-04-14T19:12:38.436Z,22.20
2019-04-14T19:15:12.416Z,25.97
2019-04-14T19:17:46.085Z,29.70
2019-04-14T19:20:19.761Z,25.23
2019-04-14T19:22:52.422Z,26.02
2019-04-14T19:25:25.517Z,26.77
2019-04-14T19:27:58.393Z,23.05
2019-04-14T19:30:31.227Z,25.00
2019-04-14T19:33:04.011Z,24.75
2019-04-14T19:35:36.729Z,23.30
2019-04-14T19:38:09.357Z,23.12
2019-04-14T19:40:41.821Z,26.82
2019-04-14T19:43:23.611Z,26.82
2019-04-14T19:45:48.165Z,24.35
2019-04-14T19:48:20.644Z,25.57
2019-04-14T19:50:53.690Z,24.20
2019-04-14T19:53:26.279Z,24.63
2019-04-14T19:55:58.845Z,22.70
2019-04-14T19:58:31.704Z,27.20
2019-04-14T20:01:07.085Z,21.97
2019-04-14T20:03:38.508Z,23.92
2019-04-14T20:06:11.112Z,20.68
2019-04-14T20:08:43.778Z,22.80
2019-04-14T20:11:16.425Z,23.18
2019-04-14T20:13:49.131Z,20.12
2019-04-14T20:16:22.994Z,23.85
2019-04-14T20:19:09.583Z,23.95
2019-04-14T20:21:32.280Z,22.52
2019-04-14T20:24:06.230Z,30.68
2019-04-14T20:26:40.182Z,25.57
2019-04-14T20:29:14.208Z,23.50
2019-04-14T20:31:47.965Z,22.62
2019-04-14T20:34:20.720Z,26.07
2019-04-14T20:36:53.330Z,24.72
2019-04-14T20:39:26.375Z,25.77
2019-04-14T20:41:58.860Z,22.48
2019-04-14T20:44:31.572Z,26.00
2019-04-14T20:47:04.184Z,26.87
2019-04-14T20:49:36.695Z,22.93
2019-04-14T20:52:09.429Z,24.75
2019-04-14T20:54:41.921Z,25.17
2019-04-14T20:57:14.436Z,29.05
2019-04-14T20:59:47.115Z,23.27
2019-04-14T21:02:20.619Z,22.52
2019-04-14T21:04:54.280Z,24.90
2019-04-14T21:07:27.974Z,26.35
2019-04-14T21:10:01.825Z,25.92
2019-04-14T21:12:35.978Z,25.00
2019-04-14T21:15:10.251Z,28.98
2019-04-14T21:17:43.990Z,25.57
2019-04-14T21:20:17.958Z,26.87
2019-04-14T21:22:51.629Z,29.75
2019-04-14T21:25:25.393Z,28.10
2019-04-14T21:27:59.199Z,23.18
2019-04-14T21:30:33.005Z,25.72
2019-04-14T21:33:06.757Z,27.50
2019-04-14T21:35:40.406Z,24.02
2019-04-14T21:38:14.165Z,26.45
2019-04-14T21:40:48.165Z,25.60
2019-04-14T21:43:20.461Z,25.17
2019-04-14T21:45:53.079Z,22.52
2019-04-14T21:48:25.461Z,24.65
2019-04-14T21:50:58.111Z,24.95
2019-04-14T21:53:30.688Z,26.33
2019-04-14T21:56:12.848Z,25.30
2019-04-14T21:58:38.590Z,27.82
2019-04-14T22:01:14.484Z,28.52
2019-04-14T22:03:49.752Z,25.90
2019-04-14T22:06:23.632Z,28.95
2019-04-14T22:08:56.853Z,26.37
2019-04-14T22:11:29.387Z,28.85
2019-04-14T22:14:01.871Z,26.93
2019-04-14T22:16:34.447Z,27.05
2019-04-14T22:19:07.051Z,26.97
2019-04-14T22:21:39.548Z,26.97
2019-04-14T22:24:11.974Z,26.62
2019-04-14T22:26:44.603Z,26.93
2019-04-14T22:29:17.006Z,29.18
2019-04-14T22:31:49.550Z,26.00
2019-04-14T22:34:22.832Z,27.70
2019-04-14T22:36:55.298Z,25.85
2019-04-14T22:39:27.684Z,29.07
2019-04-14T22:42:00.453Z,27.52
2019-04-14T22:44:33.064Z,28.17
2019-04-14T22:47:05.653Z,27.60
2019-04-14T22:49:38.443Z,26.35
2019-04-14T22:52:10.944Z,28.38
2019-04-14T22:54:43.102Z,26.87
2019-04-14T22:57:16.259Z,31.02
2019-04-14T22:59:48.695Z,27.48
2019-04-14T23:02:22.524Z,28.70
2019-04-14T23:04:56.321Z,27.05
2019-04-14T23:07:29.985Z,34.08
2019-04-14T23:10:03.857Z,31.68
2019-04-14T23:12:37.440Z,31.42
2019-04-14T23:15:12.367Z,28.23
2019-04-14T23:17:46.047Z,27.77
2019-04-14T23:20:22.942Z,29.55
2019-04-14T23:22:55.742Z,33.58
2019-04-14T23:25:28.260Z,34.23
2019-04-14T23:28:00.674Z,34.60
2019-04-14T23:30:33.611Z,34.05
2019-04-14T23:33:05.991Z,35.38
2019-04-14T23:35:38.516Z,29.75
2019-04-14T23:38:10.829Z,30.05
2019-04-14T23:40:43.502Z,30.27
2019-04-14T23:43:15.892Z,34.95
2019-04-14T23:45:48.473Z,40.08
2019-04-14T23:48:20.790Z,35.50
2019-04-14T23:50:53.146Z,34.67
2019-04-14T23:53:25.664Z,35.95
2019-04-14T23:55:58.429Z,33.40
2019-04-14T23:58:31.225Z,32.95
